Time;durP1;ratioP1;P1;durP2;ratioP2;P2;SDS_P1;SDS_P2;PMS_P1;PMS_P2;Temp;Humidity;BMP_temperature;BMP_pressure;BME280_temperature;BME280_humidity;BME280_pressure;Samples;Min_cycle;Max_cycle;Signal;HPM_P1;HPM_P2
2023/11/22 00:00:13;;;;;;;4.97;3.30;;;;;;;19.17;44.08;102638.31;5006058;28;20605;-67
2023/11/22 00:02:38;;;;;;;5.00;3.13;;;;;;;19.16;44.16;102633.94;5006579;28;20033;-67
2023/11/22 00:05:05;;;;;;;5.88;3.28;;;;;;;19.15;44.21;102626.97;5007989;28;20465;-66
2023/11/22 00:07:33;;;;;;;5.00;3.15;;;;;;;19.14;44.11;102621.78;5010155;28;20112;-67
2023/11/22 00:10:01;;;;;;;5.20;3.13;;;;;;;19.13;43.95;102620.06;5010326;28;20030;-67
2023/11/22 00:12:27;;;;;;;5.28;3.05;;;;;;;19.12;44.06;102619.22;5009902;28;20030;-67
2023/11/22 00:14:53;;;;;;;5.20;3.10;;;;;;;19.11;44.21;102619.31;5009998;28;20069;-67
2023/11/22 00:17:18;;;;;;;6.03;3.00;;;;;;;19.10;43.90;102609.66;5009383;28;20072;-67
2023/11/22 00:19:44;;;;;;;6.10;3.35;;;;;;;19.09;43.94;102613.25;5009620;28;20033;-69
2023/11/22 00:22:14;;;;;;;4.90;3.30;;;;;;;19.08;43.91;102612.41;5009335;28;20096;-67
2023/11/22 00:24:45;;;;;;;4.50;3.05;;;;;;;19.06;43.88;102616.94;5009491;28;20037;-67
2023/11/22 00:27:11;;;;;;;5.85;3.17;;;;;;;19.06;43.78;102621.34;5009508;28;20033;-67
2023/11/22 00:29:36;;;;;;;5.10;2.80;;;;;;;19.04;43.93;102629.34;5008840;28;20042;-69
2023/11/22 00:32:01;;;;;;;4.47;2.97;;;;;;;19.04;43.75;102634.63;5009586;28;20048;-67
2023/11/22 00:34:27;;;;;;;4.68;3.10;;;;;;;19.03;43.75;102631.16;5009422;28;20025;-68
2023/11/22 00:36:52;;;;;;;5.57;2.97;;;;;;;19.03;43.58;102632.97;5009530;28;20029;-67
2023/11/22 00:39:18;;;;;;;5.22;2.95;;;;;;;19.02;43.61;102639.16;5009162;28;20081;-67
2023/11/22 00:41:47;;;;;;;4.90;2.90;;;;;;;19.00;43.82;102638.41;5009747;28;20140;-68
2023/11/22 00:44:12;;;;;;;5.05;3.15;;;;;;;18.99;43.59;102645.50;5009729;28;20026;-66
2023/11/22 00:46:37;;;;;;;5.00;2.95;;;;;;;18.98;43.82;102649.06;5010018;28;20508;-67
2023/11/22 00:49:08;;;;;;;5.88;3.53;;;;;;;18.97;43.57;102650.00;5009282;28;20414;-66
2023/11/22 00:51:33;;;;;;;5.20;3.40;;;;;;;18.97;43.46;102643.88;5009316;28;20480;-68
2023/11/22 00:53:59;;;;;;;5.00;3.20;;;;;;;18.96;43.61;102648.31;5009386;28;20125;-66
2023/11/22 00:56:25;;;;;;;5.47;3.10;;;;;;;18.95;43.30;102658.97;5009323;28;20029;-66
2023/11/22 00:58:50;;;;;;;5.10;3.15;;;;;;;18.94;43.44;102657.25;5009371;28;20123;-66
2023/11/22 01:01:21;;;;;;;5.05;3.00;;;;;;;18.91;43.56;102647.69;5009221;28;20092;-68
2023/11/22 01:03:47;;;;;;;6.35;3.00;;;;;;;18.93;43.51;102650.25;5008131;28;20029;-66
2023/11/22 01:06:12;;;;;;;4.95;3.13;;;;;;;18.90;43.60;102660.97;5008197;28;20025;-66
2023/11/22 01:08:38;;;;;;;5.53;3.20;;;;;;;18.90;43.44;102666.28;5008879;28;20033;-66
2023/11/22 01:11:04;;;;;;;4.93;2.95;;;;;;;18.89;43.16;102670.72;5008656;28;20068;-66
2023/11/22 01:13:29;;;;;;;4.75;2.97;;;;;;;18.88;43.47;102669.00;5008647;28;20029;-66
2023/11/22 01:15:55;;;;;;;4.78;2.92;;;;;;;18.88;43.57;102676.06;5008230;28;20071;-66
2023/11/22 01:18:20;;;;;;;6.10;3.40;;;;;;;18.85;43.36;102677.97;5008301;28;20159;-68
2023/11/22 01:20:45;;;;;;;4.53;2.53;;;;;;;18.85;43.08;102677.97;5008205;28;20026;-66
2023/11/22 01:23:11;;;;;;;7.28;2.97;;;;;;;18.83;43.16;102677.19;5007631;28;20037;-68
2023/11/22 01:25:36;;;;;;;5.88;2.75;;;;;;;18.84;43.29;102678.03;5008604;28;20153;-67
2023/11/22 01:28:01;;;;;;;5.35;3.10;;;;;;;18.83;43.18;102678.94;5008059;28;20062;-67
2023/11/22 01:30:28;;;;;;;4.03;2.58;;;;;;;18.81;43.35;102681.66;5007707;28;20037;-69
2023/11/22 01:32:55;;;;;;;5.20;2.92;;;;;;;18.80;43.11;102687.91;5008636;28;20030;-68
2023/11/22 01:35:20;;;;;;;5.18;3.13;;;;;;;18.80;43.29;102697.59;5008784;28;20066;-67
2023/11/22 01:37:45;;;;;;;5.55;2.97;;;;;;;18.81;43.01;102712.53;5007799;28;20103;-67
2023/11/22 01:40:11;;;;;;;5.63;3.20;;;;;;;18.79;42.93;102714.41;5008993;28;20037;-67
2023/11/22 01:42:39;;;;;;;5.63;3.33;;;;;;;18.78;43.22;102717.97;5008437;28;20287;-67
2023/11/22 01:45:09;;;;;;;4.47;2.75;;;;;;;18.78;43.03;102725.91;5008783;28;20124;-68
2023/11/22 01:47:35;;;;;;;5.22;3.08;;;;;;;18.76;43.04;102733.06;5008234;28;20037;-68
2023/11/22 01:50:00;;;;;;;6.30;3.20;;;;;;;18.77;42.93;102742.66;5008393;28;20046;-68
2023/11/22 01:52:26;;;;;;;6.30;3.00;;;;;;;18.76;43.09;102739.19;5008198;28;20065;-67
2023/11/22 01:54:51;;;;;;;4.40;2.65;;;;;;;18.75;42.75;102742.75;5008535;28;20037;-68
2023/11/22 01:57:17;;;;;;;4.85;2.97;;;;;;;18.74;42.81;102741.06;5008144;28;20022;-67
2023/11/22 01:59:44;;;;;;;4.90;3.30;;;;;;;18.73;42.71;102738.50;5008245;28;20036;-66
2023/11/22 02:02:10;;;;;;;4.70;2.83;;;;;;;18.73;42.82;102738.50;5008288;28;20080;-67
2023/11/22 02:04:35;;;;;;;4.40;2.90;;;;;;;18.72;42.85;102739.44;5007908;28;20411;-67
2023/11/22 02:07:00;;;;;;;5.37;3.10;;;;;;;18.71;42.85;102735.94;5007780;28;20267;-68
2023/11/22 02:09:26;;;;;;;4.78;2.90;;;;;;;18.71;42.58;102733.31;5008089;28;20262;-66
2023/11/22 02:11:52;;;;;;;4.90;3.05;;;;;;;18.71;42.77;102729.78;5007975;28;20033;-68
2023/11/22 02:14:17;;;;;;;4.45;2.78;;;;;;;18.70;42.96;102722.81;5007741;28;20117;-66
2023/11/22 02:16:43;;;;;;;5.15;2.92;;;;;;;18.69;42.98;102719.31;5008165;28;20137;-68
2023/11/22 02:19:15;;;;;;;5.38;2.83;;;;;;;18.67;42.95;102714.13;5007873;28;20038;-67
2023/11/22 02:21:40;;;;;;;4.43;2.80;;;;;;;18.69;42.69;102714.03;5008120;28;20022;-69
2023/11/22 02:24:07;;;;;;;4.78;2.80;;;;;;;18.70;42.66;102706.97;5007768;28;20049;-67
2023/11/22 02:26:33;;;;;;;5.53;3.17;;;;;;;18.70;42.73;102713.09;5007959;28;20084;-68
2023/11/22 02:28:59;;;;;;;4.82;3.00;;;;;;;18.68;42.74;102721.09;5006298;28;21158;-67
2023/11/22 02:31:24;;;;;;;5.18;3.28;;;;;;;18.67;42.80;102732.63;5007410;28;20036;-66
2023/11/22 02:33:49;;;;;;;5.38;3.10;;;;;;;18.68;42.49;102736.13;5007484;28;20037;-67
2023/11/22 02:36:15;;;;;;;6.32;2.95;;;;;;;18.65;42.89;102736.28;5007710;28;20026;-67
2023/11/22 02:38:41;;;;;;;5.10;3.25;;;;;;;18.65;42.85;102736.28;5007735;28;20120;-67
2023/11/22 02:41:08;;;;;;;4.40;2.80;;;;;;;18.64;42.68;102747.75;5008228;28;20033;-67
2023/11/22 02:43:34;;;;;;;5.65;3.03;;;;;;;18.65;42.45;102738.91;5008182;28;20038;-68
2023/11/22 02:45:59;;;;;;;5.38;2.90;;;;;;;18.63;42.12;102740.78;5007910;28;21380;-67
2023/11/22 02:48:24;;;;;;;4.57;2.93;;;;;;;18.62;42.45;102741.72;5007861;28;20026;-67
2023/11/22 02:50:50;;;;;;;4.82;2.95;;;;;;;18.62;42.46;102734.63;5007745;28;20263;-66
2023/11/22 02:53:15;;;;;;;4.13;2.78;;;;;;;18.63;42.52;102738.16;5007636;28;20040;-67
2023/11/22 02:55:40;;;;;;;4.95;2.92;;;;;;;18.61;42.58;102732.94;5007771;28;20470;-67
2023/11/22 02:58:06;;;;;;;5.43;2.70;;;;;;;18.59;42.38;102729.53;5007888;28;20038;-67
2023/11/22 03:00:34;;;;;;;5.47;2.63;;;;;;;18.60;42.26;102730.41;5007587;28;20046;-67
2023/11/22 03:02:59;;;;;;;4.40;2.80;;;;;;;18.59;42.34;102734.81;5007828;28;20052;-66
2023/11/22 03:05:25;;;;;;;4.15;2.80;;;;;;;18.58;42.24;102727.84;5007449;28;20029;-68
2023/11/22 03:07:51;;;;;;;6.20;3.03;;;;;;;18.58;41.99;102726.97;5007679;28;20034;-69
2023/11/22 03:10:17;;;;;;;4.47;2.63;;;;;;;18.57;42.01;102731.41;5007937;28;20026;-69
2023/11/22 03:12:43;;;;;;;5.35;3.00;;;;;;;18.58;42.05;102726.97;5007206;28;20168;-67
2023/11/22 03:15:09;;;;;;;4.50;2.55;;;;;;;18.56;42.07;102737.59;5006700;28;20125;-67
2023/11/22 03:17:34;;;;;;;4.57;2.88;;;;;;;18.56;42.04;102739.41;5007545;28;20018;-66
2023/11/22 03:20:00;;;;;;;4.07;2.45;;;;;;;18.55;41.94;102743.84;5008186;28;20577;-67
2023/11/22 03:22:27;;;;;;;5.15;2.97;;;;;;;18.54;41.81;102738.63;5006946;28;20034;-67
2023/11/22 03:24:53;;;;;;;4.78;2.80;;;;;;;18.52;41.79;102728.16;5007470;28;20466;-68
2023/11/22 03:27:21;;;;;;;5.65;2.70;;;;;;;18.52;41.86;102725.53;5006549;28;20033;-67
2023/11/22 03:29:46;;;;;;;4.22;2.58;;;;;;;18.52;41.84;102740.47;5006814;28;20042;-68
2023/11/22 03:32:11;;;;;;;4.50;2.42;;;;;;;18.52;41.89;102746.63;5006881;28;20095;-67
2023/11/22 03:34:36;;;;;;;4.00;2.50;;;;;;;18.51;41.49;102744.91;5006189;28;20374;-67
2023/11/22 03:37:02;;;;;;;4.00;2.40;;;;;;;18.51;41.62;102749.34;5006526;28;20038;-68
2023/11/22 03:39:27;;;;;;;4.53;2.72;;;;;;;18.51;41.67;102752.00;5006984;28;20397;-68
2023/11/22 03:41:52;;;;;;;4.00;2.40;;;;;;;18.49;41.40;102747.63;5009848;28;20036;-68
2023/11/22 03:44:18;;;;;;;4.63;2.30;;;;;;;18.48;41.32;102758.28;5010047;28;20100;-67
2023/11/22 03:46:43;;;;;;;3.92;2.33;;;;;;;18.47;41.39;102769.81;5009396;28;20034;-69
2023/11/22 03:49:09;;;;;;;4.45;2.70;;;;;;;18.48;41.34;102772.34;5010964;28;20021;-67
2023/11/22 03:51:35;;;;;;;4.78;2.78;;;;;;;18.47;41.48;102780.38;5010486;28;20052;-68
2023/11/22 03:54:04;;;;;;;4.25;2.40;;;;;;;18.46;41.60;102795.31;5010807;28;20105;-67
2023/11/22 03:56:30;;;;;;;4.15;2.30;;;;;;;18.45;41.28;102804.19;5010728;28;20037;-69
2023/11/22 03:58:56;;;;;;;4.15;2.13;;;;;;;18.44;41.08;102801.63;5010489;28;20037;-67
2023/11/22 04:01:22;;;;;;;4.78;2.58;;;;;;;18.45;41.35;102813.88;5010517;28;20037;-67
2023/11/22 04:03:51;;;;;;;4.30;2.28;;;;;;;18.43;41.26;102813.13;5010298;28;20040;-68
2023/11/22 04:06:17;;;;;;;4.45;2.38;;;;;;;18.43;41.27;102815.75;5009829;28;20080;-67
2023/11/22 04:08:46;;;;;;;3.90;2.40;;;;;;;18.42;41.27;102817.56;5009387;28;20030;-66
2023/11/22 04:11:12;;;;;;;4.38;2.55;;;;;;;18.41;40.95;102823.75;5009742;28;20084;-66
2023/11/22 04:13:38;;;;;;;4.07;2.25;;;;;;;18.41;41.21;102823.75;5009491;28;20057;-65
2023/11/22 04:16:04;;;;;;;4.60;2.38;;;;;;;18.41;40.96;102829.03;5010376;28;20035;-67
2023/11/22 04:18:30;;;;;;;4.00;2.20;;;;;;;18.40;40.88;102827.31;5009762;28;20033;-66
2023/11/22 04:20:58;;;;;;;4.63;2.72;;;;;;;18.39;41.05;102833.56;5010500;28;20076;-67
2023/11/22 04:23:23;;;;;;;4.10;2.30;;;;;;;18.40;40.87;102844.94;5010231;28;20053;-67
2023/11/22 04:25:49;;;;;;;4.68;2.40;;;;;;;18.38;41.14;102842.38;5009680;28;20427;-66
2023/11/22 04:28:15;;;;;;;4.10;2.45;;;;;;;18.38;40.95;102844.19;5009714;28;20050;-67
2023/11/22 04:30:40;;;;;;;4.05;2.40;;;;;;;18.37;40.92;102851.22;5009499;28;20378;-67
2023/11/22 04:33:06;;;;;;;3.70;2.08;;;;;;;18.37;41.01;102853.88;5009705;28;20080;-68
2023/11/22 04:35:36;;;;;;;3.90;2.42;;;;;;;18.37;41.02;102853.88;5009623;28;20036;-67
2023/11/22 04:38:01;;;;;;;4.22;2.38;;;;;;;18.35;40.63;102845.19;5009867;28;20022;-67
2023/11/22 04:40:26;;;;;;;4.30;2.30;;;;;;;18.34;40.58;102847.91;5009254;28;20045;-67
2023/11/22 04:42:51;;;;;;;5.77;2.50;;;;;;;18.34;40.68;102846.13;5010063;28;20030;-66
2023/11/22 04:45:17;;;;;;;4.70;2.45;;;;;;;18.34;40.64;102845.25;5009517;28;20822;-67
2023/11/22 04:47:42;;;;;;;4.30;2.50;;;;;;;18.33;40.65;102846.22;5009473;28;20025;-68
2023/11/22 04:50:09;;;;;;;4.00;2.47;;;;;;;18.33;40.46;102846.22;5009378;28;20034;-66
2023/11/22 04:52:34;;;;;;;4.07;2.30;;;;;;;18.31;40.69;102844.50;5009787;28;20069;-67
2023/11/22 04:55:00;;;;;;;4.55;2.42;;;;;;;18.30;40.67;102850.69;5008841;28;20076;-69
2023/11/22 04:57:26;;;;;;;3.58;2.00;;;;;;;18.30;40.73;102852.50;5009886;28;20037;-67
2023/11/22 04:59:51;;;;;;;4.07;2.30;;;;;;;18.29;40.39;102850.78;5009181;28;20038;-66
2023/11/22 05:02:17;;;;;;;4.90;2.40;;;;;;;18.29;40.32;102861.31;5009477;28;20461;-66
2023/11/22 05:04:43;;;;;;;3.97;2.38;;;;;;;18.28;40.29;102854.38;5008586;28;20052;-67
2023/11/22 05:07:09;;;;;;;4.32;2.28;;;;;;;18.28;40.44;102859.63;5008139;28;20034;-68
2023/11/22 05:09:34;;;;;;;4.13;2.53;;;;;;;18.27;40.17;102857.91;5008575;28;20455;-68
2023/11/22 05:11:59;;;;;;;4.35;2.35;;;;;;;18.27;40.35;102855.28;5008584;28;20030;-67
2023/11/22 05:14:24;;;;;;;4.03;2.40;;;;;;;18.26;40.24;102857.06;5008294;28;20072;-68
2023/11/22 05:16:50;;;;;;;4.00;2.20;;;;;;;18.25;40.34;102868.56;5008667;28;20046;-67
2023/11/22 05:19:15;;;;;;;4.07;2.42;;;;;;;18.25;40.38;102865.06;5008925;28;20061;-67
2023/11/22 05:21:41;;;;;;;3.75;2.33;;;;;;;18.24;40.29;102853.63;5008464;28;20033;-67
2023/11/22 05:24:07;;;;;;;3.88;2.17;;;;;;;18.23;40.30;102862.50;5008526;28;20037;-68
2023/11/22 05:26:32;;;;;;;3.92;2.13;;;;;;;18.23;40.31;102866.91;5008849;28;20477;-68
2023/11/22 05:28:58;;;;;;;4.30;2.35;;;;;;;18.24;40.21;102868.63;5007777;28;20119;-67
2023/11/22 05:31:23;;;;;;;4.18;2.55;;;;;;;18.23;39.99;102861.63;5008403;28;20173;-69
2023/11/22 05:33:48;;;;;;;4.85;2.17;;;;;;;18.23;40.12;102859.00;5008394;28;20056;-66
2023/11/22 05:36:16;;;;;;;4.18;2.50;;;;;;;18.22;40.16;102855.50;5008479;28;20048;-68
2023/11/22 05:38:42;;;;;;;3.85;2.13;;;;;;;18.22;39.97;102854.66;5008661;28;20533;-67
2023/11/22 05:41:08;;;;;;;4.57;2.25;;;;;;;18.21;40.14;102852.94;5008738;28;20069;-67
2023/11/22 05:43:36;;;;;;;3.85;2.10;;;;;;;18.20;40.15;102849.47;5008535;28;20158;-68
2023/11/22 05:46:02;;;;;;;4.40;2.33;;;;;;;18.19;39.95;102850.38;5008111;28;20025;-70
2023/11/22 05:48:27;;;;;;;4.30;2.38;;;;;;;18.19;39.88;102854.81;5008400;28;20026;-67
2023/11/22 05:50:52;;;;;;;4.28;2.45;;;;;;;18.19;40.33;102860.94;5008714;28;20040;-67
2023/11/22 05:53:19;;;;;;;4.90;2.10;;;;;;;18.23;40.40;102877.47;5007896;28;20451;-68
2023/11/22 05:55:48;;;;;;;3.80;2.13;;;;;;;18.23;40.70;102869.56;5008272;28;20029;-67
2023/11/22 05:58:17;;;;;;;3.75;1.98;;;;;;;18.27;40.86;102889.59;5008217;28;20505;-67
2023/11/22 06:00:43;;;;;;;3.40;1.90;;;;;;;18.30;41.20;102900.84;5008499;28;20069;-67
2023/11/22 06:03:08;;;;;;;3.65;1.85;;;;;;;18.31;41.87;102899.94;5006515;28;20026;-67
2023/11/22 06:05:34;;;;;;;3.45;1.70;;;;;;;18.35;41.88;102902.41;5008279;28;20037;-68
2023/11/22 06:07:59;;;;;;;4.17;1.60;;;;;;;18.39;41.92;102889.00;5007883;28;20352;-67
2023/11/22 06:10:24;;;;;;;3.38;1.65;;;;;;;18.41;42.04;102884.47;5008070;28;20271;-68
2023/11/22 06:12:50;;;;;;;3.17;1.60;;;;;;;18.45;41.80;102885.16;5007660;28;20038;-68
2023/11/22 06:15:15;;;;;;;2.55;1.40;;;;;;;18.49;41.74;102892.84;5007961;28;20522;-67
2023/11/22 06:17:40;;;;;;;4.38;1.30;;;;;;;18.53;41.84;102898.84;5008111;28;20098;-67
2023/11/22 06:20:06;;;;;;;3.35;1.70;;;;;;;18.55;41.84;102897.00;5007119;28;20498;-68
2023/11/22 06:22:32;;;;;;;3.10;1.58;;;;;;;18.55;42.02;102897.00;5006887;28;20117;-68
2023/11/22 06:24:57;;;;;;;3.10;1.48;;;;;;;18.58;42.04;102896.84;5022139;28;20032;-67
2023/11/22 06:27:22;;;;;;;3.20;1.70;;;;;;;18.60;41.88;102902.03;5006894;28;20121;-67
2023/11/22 06:29:48;;;;;;;3.53;1.85;;;;;;;18.60;42.02;102909.97;5006707;28;20045;-67
2023/11/22 06:32:13;;;;;;;4.45;1.60;;;;;;;18.62;42.04;102908.09;5006933;28;20048;-67
2023/11/22 06:34:39;;;;;;;5.22;1.70;;;;;;;18.63;41.73;102904.53;5007586;28;20029;-68
2023/11/22 06:37:06;;;;;;;3.97;1.77;;;;;;;18.67;41.64;102920.13;5007172;28;20485;-68
2023/11/22 06:39:32;;;;;;;3.25;1.60;;;;;;;18.71;41.70;102919.97;5007425;28;20030;-68
2023/11/22 06:41:58;;;;;;;3.42;1.52;;;;;;;18.74;41.71;102925.97;5007439;28;20033;-67
2023/11/22 06:44:23;;;;;;;3.53;1.80;;;;;;;18.74;41.61;102925.97;5007283;28;20029;-67
2023/11/22 06:46:48;;;;;;;3.30;1.70;;;;;;;18.76;41.60;102939.09;5007590;28;20034;-67
2023/11/22 06:49:14;;;;;;;3.47;1.75;;;;;;;18.75;41.98;102935.56;5007344;28;20740;-67
2023/11/22 06:51:40;;;;;;;4.03;1.73;;;;;;;18.76;41.73;102939.09;5006926;28;20037;-65
2023/11/22 06:54:06;;;;;;;3.97;1.70;;;;;;;18.77;41.89;102941.66;5005568;28;20041;-67
2023/11/22 06:56:32;;;;;;;3.58;1.80;;;;;;;18.81;41.59;102932.63;5006691;28;20080;-68
2023/11/22 06:58:58;;;;;;;3.90;2.10;;;;;;;18.81;41.40;102915.94;5007018;28;20025;-68
2023/11/22 07:01:26;;;;;;;5.38;2.10;;;;;;;18.80;41.50;102904.50;5007580;28;20095;-68
2023/11/22 07:03:52;;;;;;;3.35;1.83;;;;;;;18.83;41.48;102901.72;5007119;28;20041;-67
2023/11/22 07:06:18;;;;;;;3.40;1.90;;;;;;;18.89;41.58;102905.00;5007153;28;20076;-67
2023/11/22 07:08:47;;;;;;;4.53;2.20;;;;;;;18.87;41.87;102899.78;5006492;28;20447;-67
2023/11/22 07:11:12;;;;;;;3.65;1.98;;;;;;;18.90;41.59;102893.47;5006632;28;20037;-68
2023/11/22 07:13:39;;;;;;;3.45;1.88;;;;;;;18.89;42.01;102897.91;5006609;28;20455;-67
2023/11/22 07:16:06;;;;;;;4.22;2.00;;;;;;;18.92;41.78;102896.91;5007043;28;20037;-67
2023/11/22 07:18:32;;;;;;;3.58;1.95;;;;;;;18.93;41.95;102894.19;5006423;28;20056;-68
2023/11/22 07:20:59;;;;;;;4.93;2.15;;;;;;;18.95;41.84;102891.47;5007330;28;20139;-66
2023/11/22 07:23:28;;;;;;;4.25;2.00;;;;;;;18.98;42.21;102901.88;5007205;28;20033;-66
2023/11/22 07:25:54;;;;;;;4.50;2.03;;;;;;;18.99;42.29;102899.16;5007093;28;20578;-66
2023/11/22 07:28:19;;;;;;;5.03;2.00;;;;;;;18.97;42.03;102908.94;5006222;28;20124;-67
2023/11/22 07:30:44;;;;;;;4.72;2.10;;;;;;;18.98;42.30;102909.81;5005915;28;20029;-65
2023/11/22 07:33:10;;;;;;;4.78;2.05;;;;;;;19.01;42.23;102913.13;5021425;28;20033;-67
2023/11/22 07:35:36;;;;;;;4.38;2.10;;;;;;;18.98;42.25;102923.88;5006734;28;20026;-67
2023/11/22 07:38:03;;;;;;;4.20;2.20;;;;;;;18.99;42.31;102920.28;5006730;28;20038;-67
2023/11/22 07:40:28;;;;;;;3.95;2.22;;;;;;;19.00;42.14;102926.44;5006583;28;20034;-67
2023/11/22 07:42:54;;;;;;;3.90;2.40;;;;;;;18.98;41.81;102925.66;5006824;28;20474;-67
2023/11/22 07:45:19;;;;;;;4.43;2.45;;;;;;;18.99;41.73;102925.59;5006957;28;20120;-67
2023/11/22 07:47:46;;;;;;;4.50;2.30;;;;;;;18.97;41.79;102923.94;5006764;28;20030;-67
2023/11/22 07:50:12;;;;;;;4.57;2.47;;;;;;;18.95;41.95;102928.47;5006503;28;20692;-67
2023/11/22 07:52:39;;;;;;;4.78;2.75;;;;;;;18.93;41.62;102923.25;5006593;28;20081;-67
2023/11/22 07:55:07;;;;;;;5.05;2.90;;;;;;;18.93;41.48;102914.47;5006293;28;20121;-68
2023/11/22 07:57:34;;;;;;;5.82;2.58;;;;;;;18.93;41.90;102928.53;5006575;28;20129;-67
2023/11/22 08:00:00;;;;;;;6.25;2.67;;;;;;;18.93;41.85;102936.47;5005900;28;20046;-68
2023/11/22 08:02:26;;;;;;;5.20;2.80;;;;;;;18.93;41.96;102935.59;5006383;28;20036;-67
2023/11/22 08:04:52;;;;;;;4.40;2.50;;;;;;;18.93;42.17;102935.59;5006377;28;20022;-66
2023/11/22 08:07:17;;;;;;;6.82;2.40;;;;;;;18.95;41.93;102952.25;5006806;28;20509;-67
2023/11/22 08:09:43;;;;;;;4.83;2.20;;;;;;;18.96;42.25;102964.50;5006197;28;20025;-67
2023/11/22 08:12:11;;;;;;;5.57;3.00;;;;;;;18.95;41.87;102966.28;5006565;28;20589;-67
2023/11/22 08:14:40;;;;;;;4.38;2.22;;;;;;;18.95;42.14;102973.38;5006267;28;20030;-67
2023/11/22 08:17:05;;;;;;;4.22;2.40;;;;;;;18.96;42.09;102980.34;5006104;28;20030;-68
2023/11/22 08:19:31;;;;;;;5.63;2.63;;;;;;;18.98;42.19;102984.63;5005876;28;20040;-67
2023/11/22 08:21:56;;;;;;;4.57;2.67;;;;;;;18.98;42.05;102979.34;5006168;28;20022;-68
2023/11/22 08:24:22;;;;;;;4.95;2.75;;;;;;;18.97;42.15;102980.28;5006172;28;20062;-67
2023/11/22 08:26:47;;;;;;;5.55;2.85;;;;;;;18.99;41.95;102977.56;5008793;28;20037;-67
2023/11/22 08:29:14;;;;;;;5.65;2.72;;;;;;;18.98;42.05;102975.88;5009354;28;20034;-67
2023/11/22 08:31:39;;;;;;;4.95;2.92;;;;;;;18.98;41.85;102976.72;5009789;28;20101;-67
2023/11/22 08:34:06;;;;;;;5.78;3.15;;;;;;;18.98;41.75;102976.72;5009573;28;20129;-68
2023/11/22 08:36:34;;;;;;;4.80;2.90;;;;;;;18.99;41.80;102969.63;5009679;28;20085;-68
2023/11/22 08:39:00;;;;;;;5.10;2.72;;;;;;;18.98;41.87;102968.78;5009650;28;20065;-67
2023/11/22 08:41:26;;;;;;;5.20;3.10;;;;;;;18.98;41.87;102965.28;5024542;28;20108;-67
2023/11/22 08:43:52;;;;;;;5.00;3.38;;;;;;;18.98;41.91;102965.28;5010058;28;20045;-68
2023/11/22 08:46:18;;;;;;;6.75;2.97;;;;;;;18.97;42.10;102972.34;5009838;28;20435;-67
2023/11/22 08:48:43;;;;;;;5.30;3.28;;;;;;;18.98;41.89;102989.94;5009118;28;20040;-68
2023/11/22 08:51:09;;;;;;;5.10;3.30;;;;;;;18.98;41.67;102997.84;5009520;28;20117;-67
2023/11/22 08:53:35;;;;;;;6.82;3.40;;;;;;;18.98;41.61;102999.66;5009105;28;20045;-67
2023/11/22 08:56:00;;;;;;;5.70;3.67;;;;;;;18.97;41.65;102998.78;5007897;28;20033;-68
2023/11/22 08:58:26;;;;;;;6.18;3.28;;;;;;;18.99;41.98;102998.69;5009617;28;20030;-67
2023/11/22 09:00:53;;;;;;;5.68;3.50;;;;;;;18.98;41.98;102997.00;5009394;28;20034;-67
2023/11/22 09:03:19;;;;;;;5.40;3.70;;;;;;;18.97;41.50;103000.56;5008926;28;20034;-68
2023/11/22 09:05:46;;;;;;;5.88;3.95;;;;;;;18.97;41.51;103001.41;5009267;28;20168;-67
2023/11/22 09:08:13;;;;;;;5.13;3.35;;;;;;;19.01;42.06;103002.13;5008952;28;20030;-66
2023/11/22 09:10:39;;;;;;;6.78;4.50;;;;;;;19.02;41.69;103002.03;5008899;28;20101;-68
2023/11/22 09:13:05;;;;;;;6.00;3.75;;;;;;;18.99;41.66;103003.97;5023231;28;21156;-68
2023/11/22 09:15:31;;;;;;;8.45;4.05;;;;;;;18.99;41.78;102996.94;5008904;28;20038;-66
2023/11/22 09:17:57;;;;;;;7.25;4.82;;;;;;;18.99;41.68;103003.97;5008817;28;20458;-68
2023/11/22 09:20:23;;;;;;;8.43;4.70;;;;;;;18.97;41.79;103006.69;5007670;28;20439;-67
2023/11/22 09:22:51;;;;;;;7.82;4.60;;;;;;;18.92;41.89;103006.09;5008108;28;20034;-67
2023/11/22 09:25:19;;;;;;;7.40;4.63;;;;;;;18.84;41.94;103006.47;5007376;28;20038;-66
2023/11/22 09:27:48;;;;;;;7.35;4.90;;;;;;;18.89;42.15;103018.59;5007339;28;20026;-67
2023/11/22 09:30:19;;;;;;;7.93;5.00;;;;;;;18.91;42.07;103019.38;5006814;28;20227;-66
2023/11/22 09:32:46;;;;;;;9.75;5.30;;;;;;;18.90;42.00;103005.31;5006731;28;20119;-66
2023/11/22 09:35:14;;;;;;;8.65;6.00;;;;;;;18.91;41.95;103014.09;5007242;28;20038;-67
2023/11/22 09:37:41;;;;;;;8.00;4.95;;;;;;;18.94;42.23;103016.56;5008028;28;20215;-67
2023/11/22 09:40:09;;;;;;;8.88;5.53;;;;;;;19.01;41.90;103010.06;5007510;28;20038;-66
2023/11/22 09:42:34;;;;;;;9.50;5.90;;;;;;;19.03;41.71;103010.84;5006029;28;20450;-65
2023/11/22 09:45:00;;;;;;;9.68;6.18;;;;;;;19.06;41.58;103015.09;5007719;28;20029;-66
2023/11/22 09:47:28;;;;;;;8.57;5.60;;;;;;;19.08;41.83;103021.16;5007132;28;20028;-66
2023/11/22 09:49:56;;;;;;;10.15;6.20;;;;;;;19.06;41.73;103023.88;5007560;28;20034;-66
2023/11/22 09:52:27;;;;;;;8.23;5.65;;;;;;;19.08;41.49;103031.75;5008300;28;20096;-66
2023/11/22 09:54:55;;;;;;;10.10;5.75;;;;;;;19.09;41.68;103030.78;5007654;28;20033;-66
2023/11/22 09:57:24;;;;;;;9.07;6.07;;;;;;;19.09;41.71;103022.84;5006877;28;20528;-66
2023/11/22 09:59:53;;;;;;;9.52;6.32;;;;;;;19.02;41.93;103017.03;5005750;28;20455;-64
2023/11/22 10:02:21;;;;;;;10.27;6.78;;;;;;;19.02;41.99;103019.69;5006082;28;20533;-65
2023/11/22 10:04:47;;;;;;;11.80;6.13;;;;;;;18.99;41.86;103010.16;5007084;28;20030;-68
2023/11/22 10:07:13;;;;;;;10.05;6.72;;;;;;;18.99;42.05;103006.63;5007476;28;20430;-68
2023/11/22 10:09:41;;;;;;;10.77;6.35;;;;;;;19.00;42.17;103005.69;5006900;28;20043;-69
2023/11/22 10:12:07;;;;;;;10.43;6.28;;;;;;;18.99;42.17;103003.97;5007069;28;20025;-68
2023/11/22 10:14:34;;;;;;;11.25;6.30;;;;;;;19.01;42.07;103007.41;5007199;28;20060;-67
2023/11/22 10:17:00;;;;;;;11.20;6.45;;;;;;;19.02;42.18;103006.47;5007619;28;20078;-66
2023/11/22 10:19:27;;;;;;;11.23;7.00;;;;;;;19.04;42.05;103004.59;5007609;28;20045;-66
2023/11/22 10:22:07;;;;;;;12.18;6.45;;;;;;;19.06;42.27;103005.38;5006810;28;20034;-68
2023/11/22 10:24:33;;;;;;;11.10;6.80;;;;;;;19.07;42.13;103009.72;5006633;28;20847;-67
2023/11/22 10:26:59;;;;;;;13.52;7.50;;;;;;;19.09;41.92;103005.25;5005889;28;20038;-67
2023/11/22 10:29:25;;;;;;;11.73;7.68;;;;;;;19.12;41.97;103014.78;5005533;28;20534;-65
2023/11/22 10:31:51;;;;;;;11.63;7.55;;;;;;;19.11;41.88;103011.28;5006378;28;20029;-65
2023/11/22 10:34:24;;;;;;;10.93;7.15;;;;;;;19.09;41.83;103015.81;5006445;28;20057;-67
2023/11/22 10:36:50;;;;;;;11.75;8.00;;;;;;;19.11;41.65;103007.81;5006986;28;20113;-65
2023/11/22 10:39:21;;;;;;;11.10;7.68;;;;;;;19.10;41.81;103000.78;5006714;28;20112;-64
2023/11/22 10:41:48;;;;;;;14.25;7.63;;;;;;;19.10;41.74;103009.56;5006890;28;20347;-65
2023/11/22 10:44:15;;;;;;;13.38;8.65;;;;;;;19.07;41.46;102996.50;5005681;28;20458;-65
2023/11/22 10:46:41;;;;;;;13.77;8.48;;;;;;;19.06;41.94;102996.59;5006599;28;20018;-68
2023/11/22 10:49:07;;;;;;;13.63;8.00;;;;;;;19.06;42.12;102986.00;5005072;28;20088;-68
2023/11/22 10:51:33;;;;;;;12.60;8.68;;;;;;;19.06;42.04;102992.19;5006188;28;20481;-68
2023/11/22 10:54:03;;;;;;;14.43;8.57;;;;;;;19.06;41.67;102992.19;5006421;28;20034;-67
2023/11/22 10:56:38;;;;;;;15.93;9.70;;;;;;;19.05;41.55;102977.25;5006301;28;20037;-68
2023/11/22 10:59:09;;;;;;;16.27;8.88;;;;;;;19.04;42.02;102964.94;5007292;28;20030;-66
2023/11/22 11:01:35;;;;;;;15.18;8.82;;;;;;;19.04;42.12;102962.31;5005777;28;20095;-67
2023/11/22 11:04:06;;;;;;;16.45;9.27;;;;;;;19.05;42.04;102964.03;5006190;28;20024;-69
2023/11/22 11:06:33;;;;;;;12.98;8.50;;;;;;;19.05;42.30;102964.03;5006402;28;20135;-67
2023/11/22 11:09:08;;;;;;;15.05;9.27;;;;;;;19.05;42.36;102950.81;5006471;28;20038;-66
2023/11/22 11:11:35;;;;;;;12.27;9.18;;;;;;;19.07;42.43;102948.09;5006533;28;20033;-68
2023/11/22 11:14:03;;;;;;;14.15;9.13;;;;;;;19.07;42.48;102941.00;5005769;28;20130;-69
2023/11/22 11:16:31;;;;;;;13.82;9.38;;;;;;;19.14;42.31;102946.84;5005440;28;20033;-65
2023/11/22 11:18:57;;;;;;;13.15;8.73;;;;;;;19.16;42.47;102952.91;5005562;28;20030;-64